Time;durP1;ratioP1;P1;durP2;ratioP2;P2;SDS_P1;SDS_P2;PMS_P1;PMS_P2;Temp;Humidity;BMP_temperature;BMP_pressure;BME280_temperature;BME280_humidity;BME280_pressure;Samples;Min_cycle;Max_cycle;Signal;HPM_P1;HPM_P2
2022/07/16 00:03:52;;;;;;;3.35;1.90;;;;;;;28.55;33.28;101176.72;143717;707;48009;-72
2022/07/16 00:06:20;;;;;;;7.05;2.50;;;;;;;28.55;33.39;101182.25;143726;715;47002;-73
2022/07/16 00:08:46;;;;;;;6.47;1.92;;;;;;;28.52;33.68;101185.63;143724;592;47012;-73
2022/07/16 00:11:13;;;;;;;4.10;1.95;;;;;;;28.49;33.40;101177.97;143724;594;47006;-73
2022/07/16 00:13:43;;;;;;;4.57;1.95;;;;;;;28.51;33.52;101184.00;143727;572;47008;-73
2022/07/16 00:16:13;;;;;;;4.10;2.00;;;;;;;28.51;33.35;101181.25;143725;567;47004;-73
2022/07/16 00:21:25;;;;;;;3.00;1.77;;;;;;;28.47;33.52;101180.22;143727;582;47012;-72
2022/07/16 00:23:51;;;;;;;4.32;1.70;;;;;;;28.50;33.32;101187.09;143724;603;47009;-71
2022/07/16 00:26:19;;;;;;;4.50;1.62;;;;;;;28.48;32.36;101183.81;143725;599;47004;-72
2022/07/16 00:28:45;;;;;;;2.97;1.62;;;;;;;28.48;32.22;101187.38;143726;586;46919;-71
2022/07/16 00:31:12;;;;;;;3.42;1.83;;;;;;;28.49;32.69;101188.22;143723;581;47004;-72
2022/07/16 00:33:38;;;;;;;1.77;1.40;;;;;;;28.48;33.59;101189.34;143727;631;46008;-70
2022/07/16 00:36:06;;;;;;;2.35;1.70;;;;;;;28.47;32.06;101188.50;143727;569;47006;-71
2022/07/16 00:38:32;;;;;;;3.87;1.70;;;;;;;28.42;32.07;101183.06;143724;591;47013;-72
2022/07/16 00:40:58;;;;;;;3.08;1.42;;;;;;;28.49;32.80;101189.00;143725;651;47006;-73
2022/07/16 00:43:25;;;;;;;3.15;1.80;;;;;;;28.45;33.27;101193.53;143726;588;46008;-73
2022/07/16 00:45:52;;;;;;;2.78;1.83;;;;;;;28.44;33.55;101189.13;143725;574;47004;-74
2022/07/16 00:48:18;;;;;;;2.62;1.80;;;;;;;28.42;33.74;101194.13;143726;579;46919;-73
2022/07/16 00:50:45;;;;;;;2.28;1.70;;;;;;;28.41;33.74;101189.75;143729;624;46006;-73
2022/07/16 00:53:12;;;;;;;2.35;1.65;;;;;;;28.36;34.63;101193.44;143728;677;46024;-73
2022/07/16 00:55:39;;;;;;;3.35;1.85;;;;;;;28.33;34.81;101187.72;143725;674;47004;-73
2022/07/16 00:58:06;;;;;;;4.65;1.67;;;;;;;28.28;34.67;101188.63;143724;608;47012;-73
2022/07/16 01:00:32;;;;;;;2.95;1.83;;;;;;;28.26;34.44;101190.88;143725;631;47006;-73
2022/07/16 01:03:01;;;;;;;4.93;1.87;;;;;;;28.22;34.50;101190.69;143725;595;46008;-71
2022/07/16 01:05:28;;;;;;;4.97;1.92;;;;;;;28.21;34.14;101178.00;143726;576;47004;-73
2022/07/16 01:07:55;;;;;;;4.68;1.95;;;;;;;28.20;34.48;101192.94;143725;598;47011;-73
2022/07/16 01:10:22;;;;;;;3.10;1.60;;;;;;;28.15;35.07;101184.75;143721;572;47954;-73
2022/07/16 01:12:49;;;;;;;2.40;1.90;;;;;;;28.12;35.43;101183.44;143727;598;47008;-72
2022/07/16 01:15:15;;;;;;;4.03;1.50;;;;;;;28.10;34.96;101182.91;143725;591;47005;-72
2022/07/16 01:17:42;;;;;;;3.65;1.90;;;;;;;28.06;35.06;101181.06;143727;606;46013;-73
2022/07/16 01:20:09;;;;;;;4.22;1.65;;;;;;;28.08;35.15;101187.06;143723;589;47006;-73
2022/07/16 01:22:35;;;;;;;2.78;1.62;;;;;;;28.09;34.69;101185.94;143729;584;46009;-73
2022/07/16 01:25:02;;;;;;;3.25;1.70;;;;;;;28.08;35.27;101185.13;143725;683;47006;-73
2022/07/16 01:27:28;;;;;;;3.05;1.70;;;;;;;28.07;35.11;101186.25;143725;598;47012;-73
2022/07/16 01:29:54;;;;;;;2.30;1.60;;;;;;;28.07;35.11;101188.19;143726;603;46928;-73
2022/07/16 01:32:21;;;;;;;5.78;1.70;;;;;;;28.04;35.51;101180.53;143726;583;46008;-73
2022/07/16 01:34:47;;;;;;;3.65;2.10;;;;;;;28.02;35.59;101182.78;143724;598;47006;-73
2022/07/16 01:37:14;;;;;;;4.15;1.73;;;;;;;28.02;36.06;101185.53;143726;584;46025;-75
2022/07/16 01:39:41;;;;;;;5.62;1.87;;;;;;;27.96;36.54;101180.09;143728;587;46027;-73
2022/07/16 01:42:10;;;;;;;5.70;2.10;;;;;;;27.90;36.03;101178.56;143728;654;46008;-73
2022/07/16 01:44:38;;;;;;;4.57;2.00;;;;;;;27.89;36.24;101181.63;143725;585;47005;-73
2022/07/16 01:47:06;;;;;;;3.28;1.58;;;;;;;27.87;36.76;101183.88;143725;615;47013;-73
2022/07/16 01:49:35;;;;;;;6.22;2.12;;;;;;;27.82;36.50;101185.59;143723;609;47006;-73
2022/07/16 01:52:06;;;;;;;2.22;1.73;;;;;;;27.86;36.57;101183.06;143729;657;46009;-74
2022/07/16 01:54:33;;;;;;;3.45;2.10;;;;;;;27.83;36.47;101181.72;143724;577;47004;-73
2022/07/16 01:56:59;;;;;;;2.55;1.80;;;;;;;27.83;35.87;101180.91;143723;597;47012;-73
2022/07/16 01:59:25;;;;;;;3.47;1.85;;;;;;;27.84;35.93;101179.81;143720;592;47928;-73
2022/07/16 02:01:52;;;;;;;5.00;1.73;;;;;;;27.84;36.10;101186.13;143725;611;47008;-73
2022/07/16 02:04:18;;;;;;;5.03;2.03;;;;;;;27.87;35.55;101189.41;143727;582;46008;-73
2022/07/16 02:06:45;;;;;;;4.62;1.60;;;;;;;27.88;35.37;101189.13;143724;589;46012;-73
2022/07/16 02:09:11;;;;;;;3.20;2.03;;;;;;;27.87;34.65;101183.88;143720;601;47006;-73
2022/07/16 02:11:38;;;;;;;2.80;1.80;;;;;;;27.90;35.01;101183.28;143724;616;46010;-71
2022/07/16 02:14:04;;;;;;;4.45;1.80;;;;;;;27.90;35.21;101188.78;143724;719;47006;-73
2022/07/16 02:16:30;;;;;;;3.55;2.00;;;;;;;27.86;35.82;101188.59;143722;589;47013;-73
2022/07/16 02:18:57;;;;;;;4.82;2.00;;;;;;;27.84;35.46;101194.41;143721;603;47006;-73
2022/07/16 02:21:23;;;;;;;6.18;2.25;;;;;;;27.84;35.77;101196.34;143724;600;46008;-73
2022/07/16 02:23:52;;;;;;;5.78;2.78;;;;;;;27.80;35.37;101190.59;143723;597;47007;-71
2022/07/16 02:26:19;;;;;;;4.05;2.50;;;;;;;27.82;35.76;101193.88;143726;588;46012;-72
2022/07/16 02:28:45;;;;;;;3.72;2.33;;;;;;;27.77;35.89;101195.94;143722;602;47006;-72
2022/07/16 02:31:12;;;;;;;4.00;2.15;;;;;;;27.74;36.26;101197.38;143725;608;46021;-72
2022/07/16 02:33:38;;;;;;;6.57;2.37;;;;;;;27.73;36.20;101192.13;143726;594;46024;-71
2022/07/16 02:36:05;;;;;;;5.00;2.25;;;;;;;27.66;36.26;101196.13;143723;609;47012;-72
2022/07/16 02:38:32;;;;;;;4.60;2.17;;;;;;;27.60;36.89;101202.03;143721;605;47006;-71
2022/07/16 02:40:58;;;;;;;6.40;2.35;;;;;;;27.58;37.71;101201.53;143725;575;46008;-72
2022/07/16 02:43:24;;;;;;;3.17;1.95;;;;;;;27.52;37.78;101201.59;143712;572;49008;-74
2022/07/16 02:45:51;;;;;;;4.15;2.12;;;;;;;27.46;38.17;101197.28;143722;610;46012;-73
2022/07/16 02:48:17;;;;;;;3.53;2.45;;;;;;;27.46;37.81;101210.28;143722;588;47006;-73
2022/07/16 02:50:44;;;;;;;3.50;2.05;;;;;;;27.49;37.68;101210.47;143725;604;46008;-73
2022/07/16 02:53:10;;;;;;;7.32;2.45;;;;;;;27.50;37.31;101212.13;143724;593;47004;-73
2022/07/16 02:55:37;;;;;;;4.78;2.22;;;;;;;27.54;36.82;101213.16;143725;572;47010;-74
2022/07/16 02:58:03;;;;;;;4.95;2.20;;;;;;;27.54;36.39;101221.44;143723;589;47004;-73
2022/07/16 03:00:30;;;;;;;8.45;2.17;;;;;;;27.60;35.54;101221.34;143726;591;46922;-73
2022/07/16 03:02:58;;;;;;;6.57;2.45;;;;;;;27.62;36.76;101217.16;143719;622;48004;-73
2022/07/16 03:05:24;;;;;;;7.18;2.40;;;;;;;27.58;37.14;101216.13;143725;698;47010;-71
2022/07/16 03:07:52;;;;;;;4.43;2.17;;;;;;;27.52;36.89;101218.16;143722;603;47004;-72
2022/07/16 03:10:18;;;;;;;3.55;1.90;;;;;;;27.51;37.01;101212.94;143723;581;46008;-71
2022/07/16 03:12:45;;;;;;;2.35;1.98;;;;;;;27.47;37.36;101211.91;143724;569;47006;-71
2022/07/16 03:15:12;;;;;;;2.65;2.10;;;;;;;27.44;37.44;101206.97;143724;647;46920;-72
2022/07/16 03:17:40;;;;;;;4.68;2.03;;;;;;;27.43;37.03;101202.56;143723;567;47010;-72
2022/07/16 03:20:07;;;;;;;7.25;2.08;;;;;;;27.43;37.66;101202.56;143725;575;46008;-72
2022/07/16 03:22:34;;;;;;;7.65;2.33;;;;;;;27.42;37.94;101204.50;143725;588;47006;-72
2022/07/16 03:25:00;;;;;;;6.60;2.42;;;;;;;27.41;38.05;101202.03;143725;620;46010;-71
2022/07/16 03:27:27;;;;;;;6.35;2.40;;;;;;;27.39;38.04;101199.59;143719;588;47006;-71
2022/07/16 03:29:53;;;;;;;8.25;2.35;;;;;;;27.39;38.20;101200.41;143725;579;46009;-72
2022/07/16 03:32:20;;;;;;;8.43;2.20;;;;;;;27.38;38.19;101197.97;143722;599;47006;-73
2022/07/16 03:34:46;;;;;;;4.68;2.33;;;;;;;27.36;38.16;101206.50;143723;596;47012;-73
2022/07/16 03:37:13;;;;;;;4.78;3.08;;;;;;;27.33;38.75;101200.78;143721;593;47006;-73
2022/07/16 03:39:39;;;;;;;7.12;3.45;;;;;;;27.27;38.84;101196.50;143723;572;46008;-72
2022/07/16 03:42:05;;;;;;;5.25;2.20;;;;;;;27.29;37.64;101195.06;143724;597;47006;-72
2022/07/16 03:44:32;;;;;;;6.10;2.30;;;;;;;27.31;38.49;101186.47;143723;605;47008;-71
2022/07/16 03:46:59;;;;;;;5.87;2.95;;;;;;;27.28;38.26;101198.94;143722;575;47006;-72
2022/07/16 03:49:25;;;;;;;8.40;2.97;;;;;;;27.26;38.06;101194.84;143725;580;47008;-72
2022/07/16 03:51:52;;;;;;;7.60;2.87;;;;;;;27.27;38.04;101196.50;143723;708;47006;-72
2022/07/16 03:54:18;;;;;;;5.12;2.67;;;;;;;27.25;37.47;101194.03;143724;578;46919;-71
2022/07/16 03:56:45;;;;;;;6.50;2.83;;;;;;;27.31;37.16;101197.50;143720;612;47006;-72
2022/07/16 03:59:11;;;;;;;5.87;2.28;;;;;;;27.30;36.74;101199.47;143724;635;46009;-72
2022/07/16 04:01:38;;;;;;;6.00;2.40;;;;;;;27.37;36.36;101199.06;143724;617;47002;-73
2022/07/16 04:04:05;;;;;;;3.65;1.80;;;;;;;27.39;36.15;101199.59;143725;612;46012;-73
2022/07/16 04:06:31;;;;;;;3.03;1.80;;;;;;;27.43;36.28;101202.56;143722;592;47007;-74
2022/07/16 04:08:58;;;;;;;4.93;2.22;;;;;;;27.49;35.96;101216.00;143726;594;46008;-72
2022/07/16 04:11:24;;;;;;;7.40;2.92;;;;;;;27.53;36.49;101206.00;143723;572;47004;-73
2022/07/16 04:13:50;;;;;;;7.97;2.33;;;;;;;27.54;36.40;101213.16;143721;612;47011;-71
2022/07/16 04:16:17;;;;;;;7.50;2.90;;;;;;;27.55;37.33;101208.44;143723;599;47006;-72
2022/07/16 04:18:43;;;;;;;3.67;2.30;;;;;;;27.52;37.35;101207.13;143723;580;47008;-73
2022/07/16 04:21:10;;;;;;;7.53;1.90;;;;;;;27.59;36.38;101214.19;143723;595;47004;-73
2022/07/16 04:23:36;;;;;;;8.02;2.35;;;;;;;27.65;35.82;101218.47;143723;572;47013;-71
2022/07/16 04:26:03;;;;;;;3.42;2.33;;;;;;;27.73;36.45;101222.50;143723;632;47004;-71
2022/07/16 04:28:29;;;;;;;4.12;2.53;;;;;;;27.74;35.91;101224.97;143725;568;46009;-71
2022/07/16 04:30:56;;;;;;;3.47;2.20;;;;;;;27.78;36.20;101225.16;143727;577;47002;-71
2022/07/16 04:33:22;;;;;;;4.40;2.28;;;;;;;27.69;36.24;101225.88;143723;671;46920;-71
2022/07/16 04:35:49;;;;;;;5.93;2.20;;;;;;;27.81;36.54;101225.38;143720;569;47006;-73
2022/07/16 04:38:16;;;;;;;5.75;2.40;;;;;;;27.91;35.64;101224.38;143724;591;46008;-71
2022/07/16 04:40:43;;;;;;;3.30;1.87;;;;;;;27.98;35.00;101223.97;143724;588;47006;-71
2022/07/16 04:43:09;;;;;;;6.72;2.35;;;;;;;28.03;35.20;101232.16;143717;651;51004;-71
2022/07/16 04:45:35;;;;;;;5.62;2.30;;;;;;;28.11;34.70;101236.19;143722;591;47006;-72
2022/07/16 04:48:02;;;;;;;6.68;2.20;;;;;;;28.10;33.55;101227.09;143725;583;46004;-71
2022/07/16 04:50:28;;;;;;;7.90;2.65;;;;;;;28.16;34.31;101233.34;143723;573;47005;-72
2022/07/16 04:52:55;;;;;;;6.22;2.25;;;;;;;28.23;34.69;101236.53;143723;567;46013;-73
2022/07/16 04:55:21;;;;;;;6.25;2.28;;;;;;;28.29;34.98;101240.00;143721;574;47012;-73
2022/07/16 04:57:48;;;;;;;7.20;3.25;;;;;;;28.31;34.04;101243.28;143724;594;47009;-73
2022/07/16 05:00:14;;;;;;;6.45;2.40;;;;;;;28.38;34.58;101245.62;143725;655;47006;-73
2022/07/16 05:02:59;;;;;;;5.43;2.20;;;;;;;28.42;34.94;101246.63;143722;610;47012;-73
2022/07/16 05:05:30;;;;;;;2.90;2.25;;;;;;;28.46;34.53;101250.41;143724;577;47006;-73
2022/07/16 05:07:57;;;;;;;5.90;2.60;;;;;;;28.50;35.67;101245.91;143724;599;47008;-74
2022/07/16 05:10:24;;;;;;;6.35;2.22;;;;;;;28.52;36.90;101254.72;143724;625;47004;-73
2022/07/16 05:12:52;;;;;;;5.45;2.33;;;;;;;28.55;37.40;101259.63;143721;606;47010;-73
2022/07/16 05:15:18;;;;;;;5.85;2.45;;;;;;;28.62;37.08;101261.97;143724;564;47004;-73
2022/07/16 05:17:45;;;;;;;5.18;2.30;;;;;;;28.66;35.08;101256.66;143725;591;46017;-73
2022/07/16 05:20:12;;;;;;;3.75;2.30;;;;;;;28.69;34.70;101265.13;143726;601;47002;-73
2022/07/16 05:22:38;;;;;;;2.75;1.98;;;;;;;28.71;34.66;101267.59;143725;599;46031;-73
2022/07/16 05:25:06;;;;;;;5.62;2.03;;;;;;;28.72;34.57;101264.53;143722;572;47006;-71
2022/07/16 05:27:33;;;;;;;2.95;2.20;;;;;;;28.77;33.75;101268.34;143723;570;47008;-73
2022/07/16 05:30:00;;;;;;;2.45;1.80;;;;;;;28.81;33.43;101263.84;143722;595;47006;-71
2022/07/16 05:32:26;;;;;;;8.50;2.65;;;;;;;28.87;33.75;101265.34;143723;583;47012;-71
2022/07/16 05:34:53;;;;;;;4.90;2.00;;;;;;;28.90;32.91;101261.97;143720;608;47006;-72
2022/07/16 05:37:19;;;;;;;3.67;1.80;;;;;;;28.94;34.00;101273.25;143724;719;46008;-72
2022/07/16 05:39:45;;;;;;;2.80;1.85;;;;;;;28.99;32.79;101276.72;143723;579;47004;-72
2022/07/16 05:42:12;;;;;;;2.40;1.70;;;;;;;29.02;33.10;101276.09;143723;594;47012;-72
2022/07/16 05:44:38;;;;;;;4.95;2.00;;;;;;;29.09;33.23;101278.41;143723;574;47004;-72
2022/07/16 05:47:05;;;;;;;5.30;2.10;;;;;;;29.14;33.52;101278.28;143725;568;46008;-74
2022/07/16 05:49:31;;;;;;;9.85;2.12;;;;;;;29.19;34.38;101274.59;143724;687;47006;-75
2022/07/16 05:51:58;;;;;;;5.70;2.20;;;;;;;29.22;33.08;101282.25;143725;587;46029;-62
2022/07/16 05:54:24;;;;;;;4.15;2.33;;;;;;;29.28;33.20;101277.44;143723;597;47006;-65
2022/07/16 05:56:51;;;;;;;5.22;2.47;;;;;;;29.32;34.12;101276.50;143721;605;47002;-62
2022/07/16 05:59:17;;;;;;;5.72;2.40;;;;;;;29.38;34.36;101277.22;143726;586;47002;-62
2022/07/16 06:01:43;;;;;;;8.57;2.30;;;;;;;29.42;34.22;101283.78;143723;588;47012;-62
2022/07/16 06:04:10;;;;;;;6.37;2.58;;;;;;;29.48;33.27;101281.69;143721;591;47006;-65
2022/07/16 06:06:36;;;;;;;7.57;2.72;;;;;;;29.50;32.91;101283.00;143723;650;47008;-62
2022/07/16 06:09:03;;;;;;;7.97;2.85;;;;;;;29.55;33.02;101268.25;143724;659;47004;-62
2022/07/16 06:11:29;;;;;;;7.55;2.55;;;;;;;29.63;33.22;101274.97;143727;587;46006;-62
2022/07/16 06:13:55;;;;;;;10.18;3.10;;;;;;;29.70;34.02;101282.84;143722;611;47004;-62
2022/07/16 06:16:22;;;;;;;7.43;2.53;;;;;;;29.76;33.68;101270.47;143725;601;46006;-62
2022/07/16 06:18:49;;;;;;;6.90;2.55;;;;;;;29.75;33.69;101269.66;143723;572;47004;-62
2022/07/16 06:21:15;;;;;;;6.45;3.15;;;;;;;29.80;33.30;101266.78;143723;568;47008;-68
2022/07/16 06:23:42;;;;;;;33.85;29.17;;;;;;;29.88;33.34;101258.81;143718;568;48960;-63
2022/07/16 06:26:08;;;;;;;11.75;6.32;;;;;;;29.94;33.00;101263.09;143717;572;49000;-64
2022/07/16 06:28:34;;;;;;;13.88;3.28;;;;;;;29.98;32.71;101255.81;143724;752;47002;-62
2022/07/16 06:31:01;;;;;;;7.35;2.55;;;;;;;30.02;32.78;101265.13;143724;615;47002;-62
2022/07/16 06:33:27;;;;;;;6.47;2.92;;;;;;;30.08;31.65;101263.03;143721;606;47006;-62
2022/07/16 06:35:53;;;;;;;7.20;3.20;;;;;;;30.12;31.94;101260.44;143727;567;46009;-62
2022/07/16 06:38:20;;;;;;;6.62;2.30;;;;;;;30.17;32.30;101252.81;143724;661;47004;-63
2022/07/16 06:40:46;;;;;;;8.57;2.67;;;;;;;30.19;32.47;101258.84;143725;610;46012;-62
2022/07/16 06:43:13;;;;;;;7.50;2.72;;;;;;;30.25;31.67;101260.34;143723;567;47004;-63
2022/07/16 06:45:43;;;;;;;9.65;3.25;;;;;;;30.29;31.49;101263.28;143725;584;46008;-63
2022/07/16 06:48:10;;;;;;;8.40;3.25;;;;;;;30.31;31.63;101251.88;143723;645;47004;-63
2022/07/16 06:50:37;;;;;;;4.40;3.10;;;;;;;30.36;31.45;101254.50;143722;577;46012;-63
2022/07/16 06:53:03;;;;;;;5.35;4.05;;;;;;;30.45;31.71;101257.31;143723;573;47006;-64
2022/07/16 06:55:30;;;;;;;13.82;3.58;;;;;;;30.52;33.76;101257.66;143724;609;47008;-64
2022/07/16 06:57:56;;;;;;;4.60;2.60;;;;;;;30.58;33.08;101252.81;143724;602;47015;-63
2022/07/16 07:00:23;;;;;;;5.30;2.22;;;;;;;30.65;32.35;101262.28;143726;592;46919;-63
2022/07/16 07:02:49;;;;;;;7.43;2.42;;;;;;;30.76;32.88;101256.44;143721;567;47006;-63
2022/07/16 07:05:16;;;;;;;4.25;2.10;;;;;;;30.82;31.82;101252.38;143724;583;46009;-62
2022/07/16 07:07:42;;;;;;;6.18;2.35;;;;;;;30.89;31.48;101257.44;143725;585;47004;-62
2022/07/16 07:10:09;;;;;;;6.40;4.65;;;;;;;30.92;31.79;101260.37;143723;579;47012;-62
2022/07/16 07:12:36;;;;;;;14.82;13.40;;;;;;;30.98;32.34;101256.31;143723;573;47004;-62
2022/07/16 07:15:04;;;;;;;7.37;6.68;;;;;;;31.06;32.19;101265.78;143723;604;46008;-62
2022/07/16 07:17:30;;;;;;;3.00;2.30;;;;;;;31.13;31.65;101263.38;143725;574;47006;-63
2022/07/16 07:19:57;;;;;;;5.18;1.95;;;;;;;31.22;31.96;101256.97;143725;585;46030;-63
2022/07/16 07:22:23;;;;;;;2.45;2.08;;;;;;;31.26;30.99;101261.53;143722;586;47006;-62
2022/07/16 07:24:53;;;;;;;4.47;1.90;;;;;;;31.30;30.90;101256.19;143724;573;47008;-62
2022/07/16 07:27:19;;;;;;;3.95;1.65;;;;;;;31.37;30.92;101256.47;143723;568;47004;-71
2022/07/16 07:29:46;;;;;;;2.33;2.03;;;;;;;31.43;31.65;101262.69;143724;626;46920;-64
2022/07/16 07:32:13;;;;;;;5.22;2.00;;;;;;;31.49;31.03;101260.56;143719;589;47006;-64
2022/07/16 07:34:39;;;;;;;4.07;1.92;;;;;;;31.54;30.65;101249.28;143726;568;46008;-62
2022/07/16 07:37:06;;;;;;;3.70;2.10;;;;;;;31.57;30.70;101248.62;143724;572;47004;-64
2022/07/16 07:39:32;;;;;;;2.22;1.48;;;;;;;31.66;31.29;101248.59;143723;604;46012;-63
2022/07/16 07:41:59;;;;;;;4.03;1.87;;;;;;;31.70;31.20;101255.13;143722;569;47006;-63
2022/07/16 07:44:25;;;;;;;4.12;1.62;;;;;;;31.77;30.98;101254.66;143727;729;46008;-64
2022/07/16 07:46:52;;;;;;;4.43;2.00;;;;;;;31.82;30.66;101255.28;143725;603;47004;-64
2022/07/16 07:49:18;;;;;;;2.47;1.70;;;;;;;31.87;31.12;101257.06;143725;568;47011;-65
2022/07/16 07:51:45;;;;;;;2.72;1.87;;;;;;;31.92;30.02;101254.13;143720;569;47006;-63
2022/07/16 07:54:11;;;;;;;7.07;2.25;;;;;;;32.02;30.89;101262.09;143725;577;46008;-63
2022/07/16 07:56:38;;;;;;;4.22;2.03;;;;;;;32.09;30.91;101255.19;143724;593;47004;-64
2022/07/16 07:59:04;;;;;;;3.72;2.30;;;;;;;32.15;31.62;101251.09;143723;597;47920;-73
2022/07/16 08:01:31;;;;;;;2.45;2.22;;;;;;;32.23;30.77;101253.00;143722;599;47006;-64
2022/07/16 08:03:57;;;;;;;4.43;2.33;;;;;;;32.28;31.44;101240.94;143722;675;47922;-64
2022/07/16 08:06:24;;;;;;;6.18;2.03;;;;;;;32.34;30.21;101248.75;143725;581;47006;-64
2022/07/16 08:08:50;;;;;;;3.50;2.08;;;;;;;32.39;30.13;101246.94;143724;569;47010;-64
2022/07/16 08:11:16;;;;;;;2.45;1.60;;;;;;;32.44;29.74;101250.34;143723;579;47006;-63
2022/07/16 08:13:43;;;;;;;4.20;1.80;;;;;;;32.51;30.19;101249.81;143724;642;47002;-63
2022/07/16 08:16:09;;;;;;;6.97;2.75;;;;;;;32.54;30.70;101239.97;143724;667;47004;-64
2022/07/16 08:18:35;;;;;;;4.43;2.45;;;;;;;32.54;30.67;101251.09;143726;656;46010;-64
2022/07/16 08:21:02;;;;;;;4.18;2.83;;;;;;;32.51;31.62;101247.81;143723;567;47006;-63
2022/07/16 08:26:12;;;;;;;4.47;2.80;;;;;;;32.51;32.01;101247.81;143728;624;46008;-64
2022/07/16 08:28:41;;;;;;;9.07;3.20;;;;;;;32.55;31.95;101242.41;143723;573;46013;-62
2022/07/16 08:31:08;;;;;;;4.43;2.72;;;;;;;32.57;32.17;101250.41;143722;623;47006;-63
2022/07/16 08:33:34;;;;;;;6.28;2.75;;;;;;;32.62;31.75;101244.66;143727;619;46008;-63
2022/07/16 08:36:01;;;;;;;5.82;2.35;;;;;;;32.69;31.88;101236.59;143722;593;47004;-62
2022/07/16 08:38:28;;;;;;;3.35;2.37;;;;;;;32.68;30.63;101240.53;143724;588;46923;-63
2022/07/16 08:40:55;;;;;;;4.45;1.95;;;;;;;32.74;30.71;101247.53;143721;603;47006;-62
2022/07/16 08:43:23;;;;;;;5.05;2.67;;;;;;;32.82;30.94;101236.72;143726;604;46009;-63
2022/07/16 08:45:50;;;;;;;6.82;2.22;;;;;;;32.90;30.66;101235.81;143724;580;47006;-63
2022/07/16 08:48:17;;;;;;;4.80;2.65;;;;;;;32.95;30.46;101238.41;143723;612;47012;-62
2022/07/16 08:50:45;;;;;;;3.75;2.17;;;;;;;33.01;30.17;101242.59;143723;582;47006;-63
2022/07/16 08:53:12;;;;;;;3.87;1.90;;;;;;;33.06;30.22;101245.19;143726;584;46008;-63
2022/07/16 08:55:42;;;;;;;6.95;2.62;;;;;;;33.09;30.17;101230.59;143725;618;47004;-67
2022/07/16 08:58:08;;;;;;;7.68;2.33;;;;;;;33.20;30.11;101241.28;143724;581;47012;-67
2022/07/16 09:00:35;;;;;;;8.10;3.60;;;;;;;33.28;29.79;101234.00;143724;586;47006;-66
2022/07/16 09:03:03;;;;;;;5.57;2.58;;;;;;;33.31;28.95;101238.91;143726;628;46008;-66
2022/07/16 09:05:29;;;;;;;5.25;2.50;;;;;;;33.40;29.68;101240.47;143724;608;47004;-66
2022/07/16 09:07:56;;;;;;;8.23;2.72;;;;;;;33.46;29.21;101243.06;143723;606;47010;-65
2022/07/16 09:10:34;;;;;;;6.05;3.00;;;;;;;33.49;28.70;101242.38;143723;668;47006;-65
2022/07/16 09:13:00;;;;;;;4.22;2.87;;;;;;;33.52;29.25;101245.28;143727;688;46008;-66
2022/07/16 09:15:33;;;;;;;5.22;2.67;;;;;;;33.60;28.97;101240.78;143726;611;47004;-66
2022/07/16 09:18:20;;;;;;;3.43;2.43;;;;;;;33.69;29.25;101243.47;143724;561;46010;-66
2022/07/16 09:20:55;;;;;;;5.12;2.90;;;;;;;33.71;28.77;101246.72;143720;660;47006;-66
2022/07/16 09:23:42;;;;;;;4.00;2.50;;;;;;;33.78;28.72;101233.03;143725;596;46008;-66
2022/07/16 09:26:11;;;;;;;8.85;3.12;;;;;;;33.86;28.52;101240.47;143725;595;47006;-66
2022/07/16 09:28:43;;;;;;;5.68;2.40;;;;;;;33.94;27.84;101236.00;143722;592;47010;-64
2022/07/16 09:31:41;;;;;;;4.87;2.00;;;;;;;34.00;27.82;101234.59;143723;646;47006;-65
2022/07/16 09:34:10;;;;;;;3.80;2.28;;;;;;;34.10;28.21;101233.34;143728;731;46023;-65
2022/07/16 09:36:39;;;;;;;6.25;2.40;;;;;;;34.15;27.82;101230.28;143721;700;47004;-66
2022/07/16 09:39:07;;;;;;;8.40;3.22;;;;;;;34.17;27.86;101232.75;143725;627;46924;-66
2022/07/16 09:41:44;;;;;;;4.10;2.78;;;;;;;34.15;27.80;101233.09;143724;567;47006;-64
2022/07/16 09:44:32;;;;;;;10.85;3.22;;;;;;;34.22;28.64;101221.38;143727;662;46008;-65
2022/07/16 09:47:01;;;;;;;5.03;2.47;;;;;;;34.25;28.66;101225.44;143722;572;47004;-65
2022/07/16 09:49:30;;;;;;;9.18;2.60;;;;;;;34.26;28.86;101224.28;143726;591;46012;-64
2022/07/16 09:51:56;;;;;;;4.00;2.40;;;;;;;34.34;28.40;101222.53;143721;588;47006;-65
2022/07/16 09:54:31;;;;;;;5.32;2.60;;;;;;;34.36;28.40;101218.22;143728;568;46008;-65
2022/07/16 09:57:18;;;;;;;4.97;2.22;;;;;;;34.33;28.65;101216.13;143725;616;47004;-65
2022/07/16 09:59:46;;;;;;;7.07;2.95;;;;;;;34.37;29.08;101221.84;143725;605;47012;-66
2022/07/16 10:02:13;;;;;;;8.15;2.22;;;;;;;34.34;28.70;101228.09;143723;575;47022;-64
2022/07/16 10:04:40;;;;;;;8.27;3.10;;;;;;;34.31;28.75;101222.06;143727;591;46926;-65
2022/07/16 10:07:06;;;;;;;5.12;3.47;;;;;;;34.34;28.68;101228.91;143726;624;47004;-66
2022/07/16 10:09:33;;;;;;;8.70;2.72;;;;;;;34.38;29.36;101220.66;143726;604;46923;-66
2022/07/16 10:12:07;;;;;;;6.55;3.70;;;;;;;34.40;28.97;101224.72;143726;589;47004;-64
2022/07/16 10:14:35;;;;;;;4.20;2.60;;;;;;;34.50;29.09;101220.69;143726;590;46008;-65
2022/07/16 10:17:21;;;;;;;4.93;2.85;;;;;;;34.55;29.12;101222.41;143726;627;47006;-65
2022/07/16 10:20:00;;;;;;;7.47;3.25;;;;;;;34.58;28.89;101222.53;143725;659;47013;-65
2022/07/16 10:22:43;;;;;;;5.43;2.37;;;;;;;34.58;28.75;101225.31;143724;577;47006;-65
2022/07/16 10:25:16;;;;;;;5.32;2.33;;;;;;;34.53;29.13;101222.78;143726;576;46008;-65
2022/07/16 10:27:43;;;;;;;5.10;2.15;;;;;;;34.40;28.37;101210.78;143729;708;47005;-65
2022/07/16 10:30:19;;;;;;;5.47;2.50;;;;;;;34.46;29.52;101216.94;143726;584;46012;-65
2022/07/16 10:33:21;;;;;;;2.97;2.00;;;;;;;34.45;29.11;101218.94;143723;567;47006;-65
2022/07/16 10:35:49;;;;;;;2.22;1.98;;;;;;;34.45;29.34;101210.59;143725;582;46008;-65
2022/07/16 10:38:24;;;;;;;3.37;1.92;;;;;;;34.44;29.18;101205.34;143726;577;47006;-65
2022/07/16 10:41:14;;;;;;;3.97;1.98;;;;;;;34.50;28.03;101211.50;143727;661;46010;-64
2022/07/16 10:43:41;;;;;;;5.25;2.20;;;;;;;34.41;28.99;101211.59;143723;595;47006;-64
2022/07/16 10:46:11;;;;;;;5.75;2.25;;;;;;;34.49;29.31;101210.69;143727;593;46925;-65
2022/07/16 10:49:17;;;;;;;3.92;2.53;;;;;;;34.54;28.10;101207.66;143726;634;47006;-65
2022/07/16 10:52:14;;;;;;;4.57;2.30;;;;;;;34.57;28.89;101208.91;143724;613;47012;-65
2022/07/16 10:54:41;;;;;;;3.65;2.00;;;;;;;34.64;28.54;101209.16;143724;572;47006;-66
2022/07/16 10:57:16;;;;;;;4.75;2.12;;;;;;;34.76;28.48;101211.91;177682;57;49273;-66
2022/07/16 10:59:46;;;;;;;3.40;1.92;;;;;;;34.79;28.40;101204.78;143725;581;47004;-65
2022/07/16 11:02:14;;;;;;;3.83;1.85;;;;;;;34.88;28.81;101213.00;143725;573;47008;-65
2022/07/16 11:04:49;;;;;;;3.92;2.50;;;;;;;34.87;29.17;101203.00;143721;583;48926;-65
2022/07/16 11:07:18;;;;;;;2.35;1.95;;;;;;;34.95;28.94;101204.91;143725;584;47006;-65
2022/07/16 11:09:48;;;;;;;3.85;1.98;;;;;;;34.91;29.21;101204.78;143726;614;47004;-65
2022/07/16 11:12:22;;;;;;;4.95;2.28;;;;;;;34.96;29.87;101200.94;143726;591;47009;-65
2022/07/16 11:14:51;;;;;;;3.47;1.80;;;;;;;34.88;27.83;101207.44;143722;569;47002;-64
2022/07/16 11:17:21;;;;;;;5.95;2.20;;;;;;;34.85;27.72;101200.59;143729;569;46006;-65
2022/07/16 11:19:50;;;;;;;6.35;2.50;;;;;;;34.82;27.86;101201.28;143725;580;47002;-65
2022/07/16 11:22:18;;;;;;;4.47;2.10;;;;;;;34.89;28.45;101200.69;143724;574;47010;-65
2022/07/16 11:24:53;;;;;;;4.60;2.30;;;;;;;34.94;28.19;101210.84;143727;569;46019;-65
2022/07/16 11:27:38;;;;;;;2.40;2.12;;;;;;;34.85;27.84;101202.59;143725;625;47006;-65
2022/07/16 11:30:10;;;;;;;3.25;1.87;;;;;;;34.98;27.82;101195.81;144143;57;47491;-65
2022/07/16 11:32:48;;;;;;;6.45;2.10;;;;;;;35.10;28.38;101194.13;143726;604;46010;-66
2022/07/16 11:35:15;;;;;;;5.68;2.17;;;;;;;35.16;28.25;101189.91;143724;602;47004;-66
2022/07/16 11:37:52;;;;;;;5.07;2.12;;;;;;;35.27;28.44;101193.00;143716;602;48004;-67